sensor_id;sensor_type;location;lat;lon;timestamp;temperature;humidity
30001;DHT22;16845;48.670;9.000;2022-10-16T00:02:06;14.90;99.90
30001;DHT22;16845;48.670;9.000;2022-10-16T00:04:34;14.80;99.90
30001;DHT22;16845;48.670;9.000;2022-10-16T00:07:04;14.80;99.90
30001;DHT22;16845;48.670;9.000;2022-10-16T00:09:32;14.80;99.90
30001;DHT22;16845;48.670;9.000;2022-10-16T00:11:59;14.70;99.90
30001;DHT22;16845;48.670;9.000;2022-10-16T00:14:27;14.70;99.90
30001;DHT22;16845;48.670;9.000;2022-10-16T00:16:55;14.60;99.90
30001;DHT22;16845;48.670;9.000;2022-10-16T00:19:23;14.80;99.90
30001;DHT22;16845;48.670;9.000;2022-10-16T00:21:51;14.80;99.90
30001;DHT22;16845;48.670;9.000;2022-10-16T00:24:21;14.90;99.90
30001;DHT22;16845;48.670;9.000;2022-10-16T00:26:50;14.80;99.90
30001;DHT22;16845;48.670;9.000;2022-10-16T00:29:18;14.80;99.90
30001;DHT22;16845;48.670;9.000;2022-10-16T00:31:46;14.70;99.90
30001;DHT22;16845;48.670;9.000;2022-10-16T00:34:14;14.70;99.90
30001;DHT22;16845;48.670;9.000;2022-10-16T00:36:42;14.70;99.90
30001;DHT22;16845;48.670;9.000;2022-10-16T00:39:10;14.50;99.90
30001;DHT22;16845;48.670;9.000;2022-10-16T00:41:39;14.60;99.90
30001;DHT22;16845;48.670;9.000;2022-10-16T00:47:09;14.70;99.90
30001;DHT22;16845;48.670;9.000;2022-10-16T00:49:38;14.70;99.90
30001;DHT22;16845;48.670;9.000;2022-10-16T00:52:06;14.60;99.90
30001;DHT22;16845;48.670;9.000;2022-10-16T00:54:34;14.60;99.90
30001;DHT22;16845;48.670;9.000;2022-10-16T00:57:05;14.50;99.90
30001;DHT22;16845;48.670;9.000;2022-10-16T00:59:36;14.50;99.90
30001;DHT22;16845;48.670;9.000;2022-10-16T01:02:06;14.50;99.90
30001;DHT22;16845;48.670;9.000;2022-10-16T01:04:38;14.50;99.90
30001;DHT22;16845;48.670;9.000;2022-10-16T01:07:12;14.50;99.90
30001;DHT22;16845;48.670;9.000;2022-10-16T01:09:51;14.40;99.90
30001;DHT22;16845;48.670;9.000;2022-10-16T01:12:29;14.50;99.90
30001;DHT22;16845;48.670;9.000;2022-10-16T01:15:08;14.40;99.90
30001;DHT22;16845;48.670;9.000;2022-10-16T01:17:43;14.40;99.90
30001;DHT22;16845;48.670;9.000;2022-10-16T01:20:20;14.40;99.90
30001;DHT22;16845;48.670;9.000;2022-10-16T01:23:15;14.50;99.90
30001;DHT22;16845;48.670;9.000;2022-10-16T01:28:58;14.70;99.90
30001;DHT22;16845;48.670;9.000;2022-10-16T01:31:32;14.70;99.90
30001;DHT22;16845;48.670;9.000;2022-10-16T01:34:05;14.70;99.90
30001;DHT22;16845;48.670;9.000;2022-10-16T01:36:37;14.60;99.90
30001;DHT22;16845;48.670;9.000;2022-10-16T01:39:09;14.70;99.90
30001;DHT22;16845;48.670;9.000;2022-10-16T01:41:40;14.80;99.90
30001;DHT22;16845;48.670;9.000;2022-10-16T01:44:12;14.80;99.90
30001;DHT22;16845;48.670;9.000;2022-10-16T01:46:43;14.80;99.90
30001;DHT22;16845;48.670;9.000;2022-10-16T01:49:12;14.90;99.90
30001;DHT22;16845;48.670;9.000;2022-10-16T01:51:41;14.90;99.90
30001;DHT22;16845;48.670;9.000;2022-10-16T01:54:13;14.90;99.90
30001;DHT22;16845;48.670;9.000;2022-10-16T01:56:43;15.00;99.90
30001;DHT22;16845;48.670;9.000;2022-10-16T01:59:16;15.00;99.90
30001;DHT22;16845;48.670;9.000;2022-10-16T02:01:48;15.00;99.90
30001;DHT22;16845;48.670;9.000;2022-10-16T02:04:22;15.00;99.90
30001;DHT22;16845;48.670;9.000;2022-10-16T02:06:52;14.90;99.90
30001;DHT22;16845;48.670;9.000;2022-10-16T02:09:20;14.90;99.90
30001;DHT22;16845;48.670;9.000;2022-10-16T02:11:50;15.00;99.90
30001;DHT22;16845;48.670;9.000;2022-10-16T02:14:21;15.10;99.90
30001;DHT22;16845;48.670;9.000;2022-10-16T02:16:51;15.10;99.90
30001;DHT22;16845;48.670;9.000;2022-10-16T02:19:20;15.20;99.90
30001;DHT22;16845;48.670;9.000;2022-10-16T02:21:51;15.20;99.90
30001;DHT22;16845;48.670;9.000;2022-10-16T02:24:24;15.20;99.90
30001;DHT22;16845;48.670;9.000;2022-10-16T02:27:00;15.30;99.90
30001;DHT22;16845;48.670;9.000;2022-10-16T02:29:31;15.20;99.90
30001;DHT22;16845;48.670;9.000;2022-10-16T02:32:03;15.20;99.90
30001;DHT22;16845;48.670;9.000;2022-10-16T02:34:32;15.20;99.90
30001;DHT22;16845;48.670;9.000;2022-10-16T02:37:03;15.20;99.90
30001;DHT22;16845;48.670;9.000;2022-10-16T02:39:33;15.20;99.90
30001;DHT22;16845;48.670;9.000;2022-10-16T02:42:01;15.20;99.90
30001;DHT22;16845;48.670;9.000;2022-10-16T02:44:30;15.20;99.90
30001;DHT22;16845;48.670;9.000;2022-10-16T02:46:58;15.20;99.90
30001;DHT22;16845;48.670;9.000;2022-10-16T02:49:26;15.10;99.90
30001;DHT22;16845;48.670;9.000;2022-10-16T02:51:54;15.10;99.90
30001;DHT22;16845;48.670;9.000;2022-10-16T02:54:22;15.10;99.90
30001;DHT22;16845;48.670;9.000;2022-10-16T02:56:50;15.10;99.90
30001;DHT22;16845;48.670;9.000;2022-10-16T02:59:18;15.10;99.90
30001;DHT22;16845;48.670;9.000;2022-10-16T03:01:48;15.10;99.90
30001;DHT22;16845;48.670;9.000;2022-10-16T03:04:15;15.10;99.90
30001;DHT22;16845;48.670;9.000;2022-10-16T03:06:43;15.10;99.90
30001;DHT22;16845;48.670;9.000;2022-10-16T03:09:11;15.20;99.90
30001;DHT22;16845;48.670;9.000;2022-10-16T03:11:39;15.10;99.90
30001;DHT22;16845;48.670;9.000;2022-10-16T03:14:07;15.10;99.90
30001;DHT22;16845;48.670;9.000;2022-10-16T03:16:35;15.10;99.90
30001;DHT22;16845;48.670;9.000;2022-10-16T03:19:04;15.10;99.90
30001;DHT22;16845;48.670;9.000;2022-10-16T03:21:32;15.20;99.90
30001;DHT22;16845;48.670;9.000;2022-10-16T03:24:00;15.10;99.90
30001;DHT22;16845;48.670;9.000;2022-10-16T03:26:28;15.10;99.90
30001;DHT22;16845;48.670;9.000;2022-10-16T03:28:56;15.10;99.90
30001;DHT22;16845;48.670;9.000;2022-10-16T03:31:24;15.00;99.90
30001;DHT22;16845;48.670;9.000;2022-10-16T03:33:52;15.00;99.90
30001;DHT22;16845;48.670;9.000;2022-10-16T03:36:22;15.00;99.90
30001;DHT22;16845;48.670;9.000;2022-10-16T03:38:50;14.90;99.90
30001;DHT22;16845;48.670;9.000;2022-10-16T03:41:18;14.90;99.90
30001;DHT22;16845;48.670;9.000;2022-10-16T03:43:46;14.90;99.90
30001;DHT22;16845;48.670;9.000;2022-10-16T03:46:14;15.00;99.90
30001;DHT22;16845;48.670;9.000;2022-10-16T03:48:41;15.10;99.90
30001;DHT22;16845;48.670;9.000;2022-10-16T03:51:09;15.00;99.90
30001;DHT22;16845;48.670;9.000;2022-10-16T03:53:39;15.00;99.90
30001;DHT22;16845;48.670;9.000;2022-10-16T03:56:07;15.10;99.90
30001;DHT22;16845;48.670;9.000;2022-10-16T03:58:35;15.00;99.90
30001;DHT22;16845;48.670;9.000;2022-10-16T04:01:03;15.00;99.90
30001;DHT22;16845;48.670;9.000;2022-10-16T04:03:31;15.10;99.90
30001;DHT22;16845;48.670;9.000;2022-10-16T04:05:59;15.10;99.90
30001;DHT22;16845;48.670;9.000;2022-10-16T04:08:27;15.10;99.90
30001;DHT22;16845;48.670;9.000;2022-10-16T04:10:56;15.00;99.90
30001;DHT22;16845;48.670;9.000;2022-10-16T04:13:24;15.00;99.90
30001;DHT22;16845;48.670;9.000;2022-10-16T04:15:52;15.00;99.90
30001;DHT22;16845;48.670;9.000;2022-10-16T04:18:20;15.10;99.90
30001;DHT22;16845;48.670;9.000;2022-10-16T04:20:48;15.10;99.90
30001;DHT22;16845;48.670;9.000;2022-10-16T04:23:16;15.20;99.90
30001;DHT22;16845;48.670;9.000;2022-10-16T04:25:44;15.10;99.90
30001;DHT22;16845;48.670;9.000;2022-10-16T04:28:13;15.10;99.90
30001;DHT22;16845;48.670;9.000;2022-10-16T04:30:41;15.20;99.90
30001;DHT22;16845;48.670;9.000;2022-10-16T04:33:09;15.10;99.90
30001;DHT22;16845;48.670;9.000;2022-10-16T04:35:37;15.10;99.90
30001;DHT22;16845;48.670;9.000;2022-10-16T04:38:05;15.10;99.90
30001;DHT22;16845;48.670;9.000;2022-10-16T04:40:33;15.10;99.90
30001;DHT22;16845;48.670;9.000;2022-10-16T04:43:03;15.20;99.90
30001;DHT22;16845;48.670;9.000;2022-10-16T04:45:32;15.10;99.90
30001;DHT22;16845;48.670;9.000;2022-10-16T04:48:00;15.00;99.90
30001;DHT22;16845;48.670;9.000;2022-10-16T04:50:28;15.00;99.90
30001;DHT22;16845;48.670;9.000;2022-10-16T04:52:56;15.00;99.90
30001;DHT22;16845;48.670;9.000;2022-10-16T04:55:24;15.00;99.90
30001;DHT22;16845;48.670;9.000;2022-10-16T04:57:52;15.00;99.90
30001;DHT22;16845;48.670;9.000;2022-10-16T05:00:20;15.00;99.90
30001;DHT22;16845;48.670;9.000;2022-10-16T05:02:51;14.90;99.90
30001;DHT22;16845;48.670;9.000;2022-10-16T05:05:19;14.90;99.90
30001;DHT22;16845;48.670;9.000;2022-10-16T05:07:47;14.80;99.90
30001;DHT22;16845;48.670;9.000;2022-10-16T05:10:16;14.80;99.90
30001;DHT22;16845;48.670;9.000;2022-10-16T05:12:44;14.80;99.90
30001;DHT22;16845;48.670;9.000;2022-10-16T05:15:12;14.80;99.90
30001;DHT22;16845;48.670;9.000;2022-10-16T05:17:40;14.80;99.90
30001;DHT22;16845;48.670;9.000;2022-10-16T05:20:12;14.80;99.90
30001;DHT22;16845;48.670;9.000;2022-10-16T05:22:40;14.80;99.90
30001;DHT22;16845;48.670;9.000;2022-10-16T05:25:08;14.90;99.90
30001;DHT22;16845;48.670;9.000;2022-10-16T05:27:36;14.80;99.90
30001;DHT22;16845;48.670;9.000;2022-10-16T05:30:05;14.80;99.90
30001;DHT22;16845;48.670;9.000;2022-10-16T05:32:38;14.80;99.90
30001;DHT22;16845;48.670;9.000;2022-10-16T05:35:06;14.80;99.90
30001;DHT22;16845;48.670;9.000;2022-10-16T05:37:39;14.80;99.90
30001;DHT22;16845;48.670;9.000;2022-10-16T05:40:08;14.80;99.90
30001;DHT22;16845;48.670;9.000;2022-10-16T05:42:36;14.80;99.90
30001;DHT22;16845;48.670;9.000;2022-10-16T05:45:06;14.80;99.90
30001;DHT22;16845;48.670;9.000;2022-10-16T05:47:34;14.70;99.90
30001;DHT22;16845;48.670;9.000;2022-10-16T05:50:02;14.80;99.90
30001;DHT22;16845;48.670;9.000;2022-10-16T05:52:31;14.80;99.90
30001;DHT22;16845;48.670;9.000;2022-10-16T05:55:01;14.90;99.90
30001;DHT22;16845;48.670;9.000;2022-10-16T05:57:29;14.90;99.90
30001;DHT22;16845;48.670;9.000;2022-10-16T05:59:57;15.00;99.90
30001;DHT22;16845;48.670;9.000;2022-10-16T06:02:25;15.10;99.90
30001;DHT22;16845;48.670;9.000;2022-10-16T06:04:53;15.20;99.90
30001;DHT22;16845;48.670;9.000;2022-10-16T06:07:21;15.20;99.90
30001;DHT22;16845;48.670;9.000;2022-10-16T06:09:50;15.20;99.90
30001;DHT22;16845;48.670;9.000;2022-10-16T06:12:20;15.20;99.90
30001;DHT22;16845;48.670;9.000;2022-10-16T06:14:48;15.20;99.90
30001;DHT22;16845;48.670;9.000;2022-10-16T06:17:16;15.20;99.90
30001;DHT22;16845;48.670;9.000;2022-10-16T06:19:44;15.10;99.90
30001;DHT22;16845;48.670;9.000;2022-10-16T06:22:12;15.10;99.90
30001;DHT22;16845;48.670;9.000;2022-10-16T06:24:40;15.20;99.90
30001;DHT22;16845;48.670;9.000;2022-10-16T06:27:08;15.20;99.90
30001;DHT22;16845;48.670;9.000;2022-10-16T06:29:37;15.20;99.90
30001;DHT22;16845;48.670;9.000;2022-10-16T06:32:05;15.10;99.90
30001;DHT22;16845;48.670;9.000;2022-10-16T06:34:33;15.30;99.90
30001;DHT22;16845;48.670;9.000;2022-10-16T06:37:02;15.30;99.90
30001;DHT22;16845;48.670;9.000;2022-10-16T06:39:30;15.30;99.90
30001;DHT22;16845;48.670;9.000;2022-10-16T06:41:58;15.30;99.90
30001;DHT22;16845;48.670;9.000;2022-10-16T06:44:31;15.30;99.90
30001;DHT22;16845;48.670;9.000;2022-10-16T06:47:01;15.40;99.90
30001;DHT22;16845;48.670;9.000;2022-10-16T06:49:28;15.50;99.90
30001;DHT22;16845;48.670;9.000;2022-10-16T06:51:56;15.50;99.90
30001;DHT22;16845;48.670;9.000;2022-10-16T06:54:24;15.50;99.90
30001;DHT22;16845;48.670;9.000;2022-10-16T06:56:53;15.60;99.90
30001;DHT22;16845;48.670;9.000;2022-10-16T06:59:21;15.60;99.90
30001;DHT22;16845;48.670;9.000;2022-10-16T07:01:49;15.60;99.90
30001;DHT22;16845;48.670;9.000;2022-10-16T07:04:18;15.60;99.90
30001;DHT22;16845;48.670;9.000;2022-10-16T07:06:46;15.60;99.90
30001;DHT22;16845;48.670;9.000;2022-10-16T07:09:14;15.60;99.90
30001;DHT22;16845;48.670;9.000;2022-10-16T07:11:42;15.70;99.90
30001;DHT22;16845;48.670;9.000;2022-10-16T07:14:15;15.70;99.90
30001;DHT22;16845;48.670;9.000;2022-10-16T07:16:44;15.70;99.90
30001;DHT22;16845;48.670;9.000;2022-10-16T07:19:12;15.70;99.90
30001;DHT22;16845;48.670;9.000;2022-10-16T07:21:43;15.70;99.90
30001;DHT22;16845;48.670;9.000;2022-10-16T07:24:13;15.60;99.90
30001;DHT22;16845;48.670;9.000;2022-10-16T07:26:43;15.60;99.90
30001;DHT22;16845;48.670;9.000;2022-10-16T07:29:13;15.60;99.90
30001;DHT22;16845;48.670;9.000;2022-10-16T07:31:41;15.60;99.90
30001;DHT22;16845;48.670;9.000;2022-10-16T07:34:10;15.70;99.90
30001;DHT22;16845;48.670;9.000;2022-10-16T07:36:38;15.70;99.90
30001;DHT22;16845;48.670;9.000;2022-10-16T07:39:12;15.70;99.90
30001;DHT22;16845;48.670;9.000;2022-10-16T07:41:40;15.80;99.90
30001;DHT22;16845;48.670;9.000;2022-10-16T07:44:08;15.90;99.90
30001;DHT22;16845;48.670;9.000;2022-10-16T07:46:36;15.90;99.90
30001;DHT22;16845;48.670;9.000;2022-10-16T07:49:04;16.00;99.90
30001;DHT22;16845;48.670;9.000;2022-10-16T07:51:32;16.10;99.90
30001;DHT22;16845;48.670;9.000;2022-10-16T07:54:00;16.10;99.90
30001;DHT22;16845;48.670;9.000;2022-10-16T07:56:30;16.00;99.90
30001;DHT22;16845;48.670;9.000;2022-10-16T07:58:58;15.90;99.90
30001;DHT22;16845;48.670;9.000;2022-10-16T08:01:26;16.00;99.90
30001;DHT22;16845;48.670;9.000;2022-10-16T08:03:54;16.10;99.90
30001;DHT22;16845;48.670;9.000;2022-10-16T08:06:23;16.10;99.90
30001;DHT22;16845;48.670;9.000;2022-10-16T08:08:54;16.20;99.90
30001;DHT22;16845;48.670;9.000;2022-10-16T08:11:22;16.30;99.90
30001;DHT22;16845;48.670;9.000;2022-10-16T08:13:52;16.30;99.90
30001;DHT22;16845;48.670;9.000;2022-10-16T08:16:20;16.40;99.90
30001;DHT22;16845;48.670;9.000;2022-10-16T08:18:49;16.60;99.90
30001;DHT22;16845;48.670;9.000;2022-10-16T08:21:19;16.90;99.90
30001;DHT22;16845;48.670;9.000;2022-10-16T08:23:47;17.10;99.90
30001;DHT22;16845;48.670;9.000;2022-10-16T08:26:22;17.30;99.90
30001;DHT22;16845;48.670;9.000;2022-10-16T08:28:52;17.40;99.90
30001;DHT22;16845;48.670;9.000;2022-10-16T08:31:20;17.30;99.90
30001;DHT22;16845;48.670;9.000;2022-10-16T08:33:48;17.30;99.90
30001;DHT22;16845;48.670;9.000;2022-10-16T08:36:16;17.20;99.90
30001;DHT22;16845;48.670;9.000;2022-10-16T08:38:47;17.20;99.90
30001;DHT22;16845;48.670;9.000;2022-10-16T08:44:35;16.90;99.90
30001;DHT22;16845;48.670;9.000;2022-10-16T08:47:13;16.80;99.90
30001;DHT22;16845;48.670;9.000;2022-10-16T08:49:51;16.90;99.90
30001;DHT22;16845;48.670;9.000;2022-10-16T08:52:24;16.90;99.90
30001;DHT22;16845;48.670;9.000;2022-10-16T08:54:55;16.90;99.90
30001;DHT22;16845;48.670;9.000;2022-10-16T08:57:25;16.90;99.90
30001;DHT22;16845;48.670;9.000;2022-10-16T08:59:57;17.10;99.90
30001;DHT22;16845;48.670;9.000;2022-10-16T09:02:31;17.40;99.90
30001;DHT22;16845;48.670;9.000;2022-10-16T09:05:11;17.40;99.90
30001;DHT22;16845;48.670;9.000;2022-10-16T09:07:53;17.50;99.90
30001;DHT22;16845;48.670;9.000;2022-10-16T09:10:34;17.80;99.90
30001;DHT22;16845;48.670;9.000;2022-10-16T09:13:16;18.10;99.90
30001;DHT22;16845;48.670;9.000;2022-10-16T09:15:49;18.20;99.90
30001;DHT22;16845;48.670;9.000;2022-10-16T09:18:25;18.30;99.90
30001;DHT22;16845;48.670;9.000;2022-10-16T09:21:01;18.40;99.90
30001;DHT22;16845;48.670;9.000;2022-10-16T09:23:35;18.50;99.90
30001;DHT22;16845;48.670;9.000;2022-10-16T09:26:05;18.70;99.90
30001;DHT22;16845;48.670;9.000;2022-10-16T09:28:36;19.00;99.90
30001;DHT22;16845;48.670;9.000;2022-10-16T09:31:10;19.10;99.90
30001;DHT22;16845;48.670;9.000;2022-10-16T09:33:42;19.00;99.90
30001;DHT22;16845;48.670;9.000;2022-10-16T09:36:12;18.90;99.90
30001;DHT22;16845;48.670;9.000;2022-10-16T09:38:40;19.00;99.90
30001;DHT22;16845;48.670;9.000;2022-10-16T09:41:17;18.80;99.90
30001;DHT22;16845;48.670;9.000;2022-10-16T09:43:49;18.90;99.90
30001;DHT22;16845;48.670;9.000;2022-10-16T09:46:25;19.20;99.90
30001;DHT22;16845;48.670;9.000;2022-10-16T09:48:56;19.30;99.90
30001;DHT22;16845;48.670;9.000;2022-10-16T09:51:26;19.30;99.90
30001;DHT22;16845;48.670;9.000;2022-10-16T09:53:57;19.40;99.90
30001;DHT22;16845;48.670;9.000;2022-10-16T09:56:27;19.70;99.90
30001;DHT22;16845;48.670;9.000;2022-10-16T09:58:57;19.90;99.90
30001;DHT22;16845;48.670;9.000;2022-10-16T10:01:30;19.90;99.90
30001;DHT22;16845;48.670;9.000;2022-10-16T10:03:59;20.10;99.90
30001;DHT22;16845;48.670;9.000;2022-10-16T10:06:30;20.40;99.90
30001;DHT22;16845;48.670;9.000;2022-10-16T10:09:05;20.70;99.90
30001;DHT22;16845;48.670;9.000;2022-10-16T10:11:45;21.40;99.90
30001;DHT22;16845;48.670;9.000;2022-10-16T10:14:24;22.10;99.90
30001;DHT22;16845;48.670;9.000;2022-10-16T10:17:13;23.00;99.90
30001;DHT22;16845;48.670;9.000;2022-10-16T10:19:46;23.10;99.90
30001;DHT22;16845;48.670;9.000;2022-10-16T10:22:23;22.80;99.90
30001;DHT22;16845;48.670;9.000;2022-10-16T10:25:28;22.30;99.90
30001;DHT22;16845;48.670;9.000;2022-10-16T10:31:01;21.70;99.90
30001;DHT22;16845;48.670;9.000;2022-10-16T10:33:43;21.50;99.90
30001;DHT22;16845;48.670;9.000;2022-10-16T10:36:19;21.50;99.90
30001;DHT22;16845;48.670;9.000;2022-10-16T10:38:50;21.40;99.90
30001;DHT22;16845;48.670;9.000;2022-10-16T10:41:51;21.20;99.90
30001;DHT22;16845;48.670;9.000;2022-10-16T10:44:31;21.30;99.90
30001;DHT22;16845;48.670;9.000;2022-10-16T10:47:05;21.10;99.90
30001;DHT22;16845;48.670;9.000;2022-10-16T10:49:49;21.00;99.90
30001;DHT22;16845;48.670;9.000;2022-10-16T10:52:36;21.10;99.90
30001;DHT22;16845;48.670;9.000;2022-10-16T10:55:14;21.10;99.90
30001;DHT22;16845;48.670;9.000;2022-10-16T10:57:55;21.30;99.90
30001;DHT22;16845;48.670;9.000;2022-10-16T11:00:29;21.50;99.90
30001;DHT22;16845;48.670;9.000;2022-10-16T11:03:07;21.40;99.90
30001;DHT22;16845;48.670;9.000;2022-10-16T11:05:42;21.50;99.90
30001;DHT22;16845;48.670;9.000;2022-10-16T11:08:15;21.60;99.90
30001;DHT22;16845;48.670;9.000;2022-10-16T11:10:50;21.70;99.90
30001;DHT22;16845;48.670;9.000;2022-10-16T11:13:30;21.80;99.90
30001;DHT22;16845;48.670;9.000;2022-10-16T11:16:01;22.10;99.90
30001;DHT22;16845;48.670;9.000;2022-10-16T11:18:38;22.20;99.90
30001;DHT22;16845;48.670;9.000;2022-10-16T11:21:12;22.20;99.90
30001;DHT22;16845;48.670;9.000;2022-10-16T11:23:44;22.20;99.90
30001;DHT22;16845;48.670;9.000;2022-10-16T11:26:18;22.50;99.90
30001;DHT22;16845;48.670;9.000;2022-10-16T11:28:49;22.70;99.90
30001;DHT22;16845;48.670;9.000;2022-10-16T11:31:24;22.80;99.90
30001;DHT22;16845;48.670;9.000;2022-10-16T11:34:01;22.70;99.90
30001;DHT22;16845;48.670;9.000;2022-10-16T11:36:36;22.80;99.90
30001;DHT22;16845;48.670;9.000;2022-10-16T11:39:15;22.70;99.90
30001;DHT22;16845;48.670;9.000;2022-10-16T11:41:48;22.40;99.90
30001;DHT22;16845;48.670;9.000;2022-10-16T11:44:36;22.20;99.90
30001;DHT22;16845;48.670;9.000;2022-10-16T11:47:08;22.10;99.90
30001;DHT22;16845;48.670;9.000;2022-10-16T11:50:05;21.90;99.90
30001;DHT22;16845;48.670;9.000;2022-10-16T11:52:44;22.00;99.90
30001;DHT22;16845;48.670;9.000;2022-10-16T11:55:17;22.20;99.90
30001;DHT22;16845;48.670;9.000;2022-10-16T11:57:48;22.30;99.90
30001;DHT22;16845;48.670;9.000;2022-10-16T12:00:21;22.30;99.90
30001;DHT22;16845;48.670;9.000;2022-10-16T12:02:58;22.30;99.90
30001;DHT22;16845;48.670;9.000;2022-10-16T12:05:35;22.40;99.90
30001;DHT22;16845;48.670;9.000;2022-10-16T12:08:09;22.60;99.90
30001;DHT22;16845;48.670;9.000;2022-10-16T12:10:39;22.90;99.90
30001;DHT22;16845;48.670;9.000;2022-10-16T12:13:33;23.30;99.90
30001;DHT22;16845;48.670;9.000;2022-10-16T12:16:07;23.50;99.90
30001;DHT22;16845;48.670;9.000;2022-10-16T12:18:47;23.70;99.90
30001;DHT22;16845;48.670;9.000;2022-10-16T12:21:16;24.20;99.90
30001;DHT22;16845;48.670;9.000;2022-10-16T12:23:51;24.00;99.90
30001;DHT22;16845;48.670;9.000;2022-10-16T12:26:27;23.90;99.90
30001;DHT22;16845;48.670;9.000;2022-10-16T12:28:57;24.30;99.90
30001;DHT22;16845;48.670;9.000;2022-10-16T12:31:39;24.90;99.90
30001;DHT22;16845;48.670;9.000;2022-10-16T12:34:27;26.00;99.90
30001;DHT22;16845;48.670;9.000;2022-10-16T12:37:08;27.00;99.90
30001;DHT22;16845;48.670;9.000;2022-10-16T12:39:39;27.80;99.90
30001;DHT22;16845;48.670;9.000;2022-10-16T12:42:21;27.40;99.90
30001;DHT22;16845;48.670;9.000;2022-10-16T12:44:51;26.40;99.90
30001;DHT22;16845;48.670;9.000;2022-10-16T12:47:22;25.80;99.90
30001;DHT22;16845;48.670;9.000;2022-10-16T12:49:51;25.30;99.90
30001;DHT22;16845;48.670;9.000;2022-10-16T12:52:26;24.40;99.90
30001;DHT22;16845;48.670;9.000;2022-10-16T12:54:58;23.90;99.90
30001;DHT22;16845;48.670;9.000;2022-10-16T12:57:42;23.50;99.90
30001;DHT22;16845;48.670;9.000;2022-10-16T13:00:22;23.20;99.90
30001;DHT22;16845;48.670;9.000;2022-10-16T13:05:54;23.10;99.90
30001;DHT22;16845;48.670;9.000;2022-10-16T13:08:35;23.10;99.90
30001;DHT22;16845;48.670;9.000;2022-10-16T13:11:15;23.20;99.90
30001;DHT22;16845;48.670;9.000;2022-10-16T13:14:15;24.00;99.90
30001;DHT22;16845;48.670;9.000;2022-10-16T13:16:53;24.60;99.90
30001;DHT22;16845;48.670;9.000;2022-10-16T13:19:29;24.50;99.90
30001;DHT22;16845;48.670;9.000;2022-10-16T13:22:05;24.70;99.90
30001;DHT22;16845;48.670;9.000;2022-10-16T13:24:52;24.90;99.90
30001;DHT22;16845;48.670;9.000;2022-10-16T13:27:32;24.30;99.90
30001;DHT22;16845;48.670;9.000;2022-10-16T13:30:11;24.30;99.90
30001;DHT22;16845;48.670;9.000;2022-10-16T13:32:40;24.60;99.90
30001;DHT22;16845;48.670;9.000;2022-10-16T13:35:20;24.50;99.90
30001;DHT22;16845;48.670;9.000;2022-10-16T13:37:49;24.40;99.90
30001;DHT22;16845;48.670;9.000;2022-10-16T13:40:22;23.90;99.90
30001;DHT22;16845;48.670;9.000;2022-10-16T13:42:53;23.70;99.90
30001;DHT22;16845;48.670;9.000;2022-10-16T13:45:24;23.50;99.90
30001;DHT22;16845;48.670;9.000;2022-10-16T13:48:02;23.30;99.90
30001;DHT22;16845;48.670;9.000;2022-10-16T13:50:30;23.10;99.90
30001;DHT22;16845;48.670;9.000;2022-10-16T13:53:05;22.90;99.90
30001;DHT22;16845;48.670;9.000;2022-10-16T13:55:33;22.70;99.90
30001;DHT22;16845;48.670;9.000;2022-10-16T13:58:07;22.40;99.90
30001;DHT22;16845;48.670;9.000;2022-10-16T14:00:35;22.20;99.90
30001;DHT22;16845;48.670;9.000;2022-10-16T14:03:13;22.10;99.90
30001;DHT22;16845;48.670;9.000;2022-10-16T14:05:48;22.10;99.90
30001;DHT22;16845;48.670;9.000;2022-10-16T14:08:16;21.90;99.90
30001;DHT22;16845;48.670;9.000;2022-10-16T14:10:48;21.90;99.90
30001;DHT22;16845;48.670;9.000;2022-10-16T14:13:20;21.70;99.90
30001;DHT22;16845;48.670;9.000;2022-10-16T14:15:51;21.70;99.90
30001;DHT22;16845;48.670;9.000;2022-10-16T14:18:23;21.70;99.90
30001;DHT22;16845;48.670;9.000;2022-10-16T14:20:52;21.50;99.90
30001;DHT22;16845;48.670;9.000;2022-10-16T14:23:27;21.50;99.90
30001;DHT22;16845;48.670;9.000;2022-10-16T14:26:06;21.50;99.90
30001;DHT22;16845;48.670;9.000;2022-10-16T14:28:37;21.50;99.90
30001;DHT22;16845;48.670;9.000;2022-10-16T14:31:25;21.40;99.90
30001;DHT22;16845;48.670;9.000;2022-10-16T14:33:53;21.50;99.90
30001;DHT22;16845;48.670;9.000;2022-10-16T14:36:22;21.30;99.90
30001;DHT22;16845;48.670;9.000;2022-10-16T14:39:00;21.30;99.90
30001;DHT22;16845;48.670;9.000;2022-10-16T14:41:30;21.50;99.90
30001;DHT22;16845;48.670;9.000;2022-10-16T14:44:02;21.40;99.90
30001;DHT22;16845;48.670;9.000;2022-10-16T14:46:34;21.30;99.90
30001;DHT22;16845;48.670;9.000;2022-10-16T14:49:13;21.30;99.90
30001;DHT22;16845;48.670;9.000;2022-10-16T14:51:42;21.20;99.90
30001;DHT22;16845;48.670;9.000;2022-10-16T14:54:13;21.00;99.90
30001;DHT22;16845;48.670;9.000;2022-10-16T14:56:46;20.90;99.90
30001;DHT22;16845;48.670;9.000;2022-10-16T14:59:19;20.80;99.90
30001;DHT22;16845;48.670;9.000;2022-10-16T15:01:47;20.80;99.90
30001;DHT22;16845;48.670;9.000;2022-10-16T15:04:15;20.70;99.90
30001;DHT22;16845;48.670;9.000;2022-10-16T15:06:44;20.70;99.90
30001;DHT22;16845;48.670;9.000;2022-10-16T15:09:12;20.60;99.90
30001;DHT22;16845;48.670;9.000;2022-10-16T15:11:41;20.50;99.90
30001;DHT22;16845;48.670;9.000;2022-10-16T15:14:11;20.40;99.90
30001;DHT22;16845;48.670;9.000;2022-10-16T15:16:42;20.30;99.90
30001;DHT22;16845;48.670;9.000;2022-10-16T15:19:10;20.30;99.90
30001;DHT22;16845;48.670;9.000;2022-10-16T15:21:38;20.10;99.90
30001;DHT22;16845;48.670;9.000;2022-10-16T15:24:09;20.10;99.90
30001;DHT22;16845;48.670;9.000;2022-10-16T15:26:45;20.10;99.90
30001;DHT22;16845;48.670;9.000;2022-10-16T15:29:13;20.10;99.90
30001;DHT22;16845;48.670;9.000;2022-10-16T15:31:43;20.00;99.90
30001;DHT22;16845;48.670;9.000;2022-10-16T15:34:12;19.90;99.90
30001;DHT22;16845;48.670;9.000;2022-10-16T15:36:40;19.70;99.90
30001;DHT22;16845;48.670;9.000;2022-10-16T15:39:13;19.70;99.90
30001;DHT22;16845;48.670;9.000;2022-10-16T15:41:41;19.50;99.90
30001;DHT22;16845;48.670;9.000;2022-10-16T15:44:10;19.40;99.90
30001;DHT22;16845;48.670;9.000;2022-10-16T15:46:37;19.30;99.90
30001;DHT22;16845;48.670;9.000;2022-10-16T15:49:08;19.20;99.90
30001;DHT22;16845;48.670;9.000;2022-10-16T15:51:38;19.00;99.90
30001;DHT22;16845;48.670;9.000;2022-10-16T15:54:06;18.90;99.90
30001;DHT22;16845;48.670;9.000;2022-10-16T15:56:34;18.80;99.90
30001;DHT22;16845;48.670;9.000;2022-10-16T15:59:04;18.60;99.90
30001;DHT22;16845;48.670;9.000;2022-10-16T16:01:32;18.60;99.90
30001;DHT22;16845;48.670;9.000;2022-10-16T16:04:01;18.50;99.90
30001;DHT22;16845;48.670;9.000;2022-10-16T16:06:47;18.40;99.90
30001;DHT22;16845;48.670;9.000;2022-10-16T16:09:15;18.30;99.90
30001;DHT22;16845;48.670;9.000;2022-10-16T16:11:43;18.20;99.90
30001;DHT22;16845;48.670;9.000;2022-10-16T16:14:13;18.10;99.90